createdAt,value
2022-10-21T00:01:41.199Z,98050.56
2022-10-21T00:04:08.002Z,98056.31
2022-10-21T00:06:34.555Z,98059.19
2022-10-21T00:09:01.309Z,98046.94
2022-10-21T00:11:27.987Z,98043.47
2022-10-21T00:13:54.562Z,98043.47
2022-10-21T00:16:21.066Z,98041.41
2022-10-21T00:18:48.696Z,98039.97
2022-10-21T00:21:18.561Z,98043.44
2022-10-21T00:23:46.426Z,98039.16
2022-10-21T00:26:14.505Z,98040.97
2022-10-21T00:28:41.361Z,98033.69
2022-10-21T00:31:09.410Z,98023.50
2022-10-21T00:33:36.751Z,98035.28
2022-10-21T00:36:03.958Z,98040.81
2022-10-21T00:38:31.567Z,98031.22
2022-10-21T00:40:58.773Z,98033.28
2022-10-21T00:43:25.784Z,98026.53
2022-10-21T00:46:11.350Z,98020.47
2022-10-21T00:48:44.601Z,98020.69
2022-10-21T00:51:14.500Z,98019.88
2022-10-21T00:53:45.908Z,98021.72
2022-10-21T00:56:21.399Z,98016.88
2022-10-21T00:58:48.915Z,98003.44
2022-10-21T01:01:19.123Z,98020.50
2022-10-21T01:03:48.651Z,98009.94
2022-10-21T01:06:16.583Z,98002.38
2022-10-21T01:08:43.459Z,97962.16
2022-10-21T01:11:17.438Z,97961.72
2022-10-21T01:14:02.564Z,97983.50
2022-10-21T01:17:00.610Z,97981.66
2022-10-21T01:19:54.321Z,97980.22
2022-10-21T01:22:42.701Z,97980.00
2022-10-21T01:25:15.365Z,97982.19
2022-10-21T01:27:58.176Z,97966.88
2022-10-21T01:30:38.541Z,97969.34
2022-10-21T01:33:13.847Z,97963.13
2022-10-21T01:35:46.222Z,97968.84
2022-10-21T01:38:24.594Z,97960.69
2022-10-21T01:41:28.207Z,97961.31
2022-10-21T01:44:35.654Z,97959.63
2022-10-21T01:47:16.434Z,97958.75
2022-10-21T01:49:52.922Z,97951.75
2022-10-21T01:52:20.071Z,97947.44
2022-10-21T01:55:03.683Z,97956.25
2022-10-21T01:57:35.206Z,97944.72
2022-10-21T02:00:02.128Z,97944.53
2022-10-21T02:02:35.866Z,97932.34
2022-10-21T02:05:09.385Z,97928.22
2022-10-21T02:07:36.221Z,97919.19
2022-10-21T02:10:04.770Z,97913.81
2022-10-21T02:12:33.699Z,97902.16
2022-10-21T02:15:02.530Z,97845.50
2022-10-21T02:17:29.389Z,97890.78
2022-10-21T02:19:59.516Z,97889.25
2022-10-21T02:22:26.890Z,97887.34
2022-10-21T02:24:57.790Z,97887.94
2022-10-21T02:27:24.580Z,97896.03
2022-10-21T02:29:54.914Z,97901.13
2022-10-21T02:32:43.500Z,97905.91
2022-10-21T02:35:16.101Z,97906.38
2022-10-21T02:38:10.187Z,97894.53
2022-10-21T02:40:38.414Z,97900.81
2022-10-21T02:43:10.072Z,97900.75
2022-10-21T02:45:36.938Z,97883.97
2022-10-21T02:48:03.800Z,97885.78
2022-10-21T02:50:30.497Z,97874.31
2022-10-21T02:52:57.475Z,97869.91
2022-10-21T02:55:24.415Z,97871.06
2022-10-21T02:57:50.925Z,97867.38
2022-10-21T03:00:17.683Z,97874.19
2022-10-21T03:02:44.218Z,97868.44
2022-10-21T03:05:11.147Z,97865.31
2022-10-21T03:07:37.848Z,97860.41
2022-10-21T03:10:05.578Z,97862.81
2022-10-21T03:12:32.184Z,97873.22
2022-10-21T03:14:58.766Z,97865.00
2022-10-21T03:17:25.605Z,97868.44
2022-10-21T03:19:52.235Z,97868.13
2022-10-21T03:22:18.750Z,97869.59
2022-10-21T03:24:45.470Z,97872.06
2022-10-21T03:27:11.975Z,97835.25
2022-10-21T03:29:38.614Z,97847.38
2022-10-21T03:32:05.526Z,97857.19
2022-10-21T03:34:32.067Z,97858.06
2022-10-21T03:36:58.579Z,97862.03
2022-10-21T03:39:25.256Z,97870.22
2022-10-21T03:41:51.762Z,97878.09
2022-10-21T03:44:18.364Z,97869.16
2022-10-21T03:46:44.933Z,97862.50
2022-10-21T03:49:18.334Z,97861.09
2022-10-21T03:51:48.320Z,97848.13
2022-10-21T03:54:15.014Z,97842.50
2022-10-21T03:56:41.908Z,97840.50
2022-10-21T03:59:08.598Z,97847.22
2022-10-21T04:01:35.343Z,97849.53
2022-10-21T04:04:01.900Z,97829.97
2022-10-21T04:06:28.562Z,97836.72
2022-10-21T04:08:55.159Z,97857.47
2022-10-21T04:11:22.011Z,97870.28
2022-10-21T04:13:48.588Z,97876.75
2022-10-21T04:16:18.633Z,97849.72
2022-10-21T04:18:45.172Z,97877.53
2022-10-21T04:21:12.667Z,97831.25
2022-10-21T04:23:39.354Z,97862.69
2022-10-21T04:26:06.867Z,97856.25
2022-10-21T04:28:34.218Z,97858.25
2022-10-21T04:31:00.875Z,97860.13
2022-10-21T04:33:27.450Z,97856.44
2022-10-21T04:35:55.471Z,97842.41
2022-10-21T04:38:22.903Z,97848.72
2022-10-21T04:41:07.413Z,97846.25
2022-10-21T04:43:34.072Z,97832.44
2022-10-21T04:46:00.569Z,97832.47
2022-10-21T04:48:27.326Z,97834.47
2022-10-21T04:50:54.265Z,97825.53
2022-10-21T04:53:22.308Z,97828.19
2022-10-21T04:55:53.279Z,97817.88
2022-10-21T04:58:22.071Z,97808.75
2022-10-21T05:00:52.204Z,97811.41
2022-10-21T05:03:19.918Z,97809.16
2022-10-21T05:05:49.608Z,97814.63
2022-10-21T05:08:16.482Z,97808.13
2022-10-21T05:10:46.777Z,97801.03
2022-10-21T05:13:13.644Z,97782.34
2022-10-21T05:15:40.208Z,97800.84
2022-10-21T05:18:07.276Z,97793.53
2022-10-21T05:20:33.808Z,97789.47
2022-10-21T05:23:00.384Z,97794.13
2022-10-21T05:25:29.194Z,97791.47
2022-10-21T05:27:58.355Z,97789.66
2022-10-21T05:30:24.866Z,97791.69
2022-10-21T05:32:51.485Z,97785.38
2022-10-21T05:35:18.042Z,97790.47
2022-10-21T05:37:44.632Z,97794.94
2022-10-21T05:40:11.787Z,97774.03
2022-10-21T05:42:38.680Z,97797.16
2022-10-21T05:45:06.105Z,97781.56
2022-10-21T05:47:32.740Z,97787.22
2022-10-21T05:49:59.234Z,97784.19
2022-10-21T05:52:25.823Z,97780.94
2022-10-21T05:54:52.419Z,97778.28
2022-10-21T05:57:19.002Z,97777.69
2022-10-21T05:59:45.481Z,97779.91
2022-10-21T06:02:12.448Z,97778.28
2022-10-21T06:04:39.061Z,97787.66
2022-10-21T06:07:06.320Z,97760.59
2022-10-21T06:09:33.083Z,97786.59
2022-10-21T06:11:59.707Z,97757.81
2022-10-21T06:14:27.038Z,97783.16
2022-10-21T06:16:53.694Z,97787.66
2022-10-21T06:19:20.203Z,97781.53
2022-10-21T06:21:48.126Z,97780.53
2022-10-21T06:24:15.309Z,97779.28
2022-10-21T06:26:41.984Z,97781.75
2022-10-21T06:29:08.507Z,97789.25
2022-10-21T06:31:35.113Z,97782.16
2022-10-21T06:34:01.657Z,97777.25
2022-10-21T06:36:28.211Z,97778.50
2022-10-21T06:38:54.789Z,97776.06
2022-10-21T06:41:21.550Z,97787.66
2022-10-21T06:43:48.050Z,97797.56
2022-10-21T06:46:15.954Z,97802.84
2022-10-21T06:48:42.457Z,97793.13
2022-10-21T06:51:21.687Z,97792.84
2022-10-21T06:53:52.847Z,97787.03
2022-10-21T06:56:20.463Z,97792.31
2022-10-21T06:58:48.427Z,97789.88
2022-10-21T07:01:34.337Z,97791.50
2022-10-21T07:04:09.267Z,97808.53
2022-10-21T07:06:36.720Z,97793.09
2022-10-21T07:09:05.927Z,97807.34
2022-10-21T07:11:32.563Z,97797.16
2022-10-21T07:14:01.044Z,97814.00
2022-10-21T07:16:33.273Z,97811.34
2022-10-21T07:19:00.068Z,97786.97
2022-10-21T07:21:29.860Z,97803.19
2022-10-21T07:23:59.385Z,97790.22
2022-10-21T07:26:28.859Z,97797.50
2022-10-21T07:28:56.842Z,97794.22
2022-10-21T07:31:23.550Z,97796.69
2022-10-21T07:33:50.381Z,97792.16
2022-10-21T07:36:26.962Z,97790.88
2022-10-21T07:38:55.507Z,97790.28
2022-10-21T07:41:25.346Z,97789.66
2022-10-21T07:43:53.021Z,97794.56
2022-10-21T07:46:21.411Z,97792.41
2022-10-21T07:48:48.444Z,97789.78
2022-10-21T07:51:18.114Z,97745.75
2022-10-21T07:53:45.301Z,97799.06
2022-10-21T07:56:17.884Z,97786.78
2022-10-21T07:58:45.012Z,97787.72
2022-10-21T08:01:11.893Z,97792.53
2022-10-21T08:03:39.000Z,97796.31
2022-10-21T08:06:08.204Z,97800.72
2022-10-21T08:08:36.187Z,97795.25
2022-10-21T08:11:04.652Z,97787.00
2022-10-21T08:13:31.375Z,97784.06
2022-10-21T08:15:58.831Z,97785.47
2022-10-21T08:18:25.590Z,97781.91
2022-10-21T08:20:52.284Z,97785.22
2022-10-21T08:23:21.516Z,97779.66
2022-10-21T08:25:53.882Z,97786.50
2022-10-21T08:28:21.875Z,97781.00
2022-10-21T08:30:48.538Z,97787.97
2022-10-21T08:33:15.974Z,97783.44
2022-10-21T08:35:44.162Z,97792.81
2022-10-21T08:38:12.004Z,97762.06
2022-10-21T08:40:45.818Z,97805.22
2022-10-21T08:43:28.022Z,97790.19
2022-10-21T08:46:03.280Z,97798.25
2022-10-21T08:48:36.282Z,97780.88
2022-10-21T08:51:05.665Z,97781.25
2022-10-21T08:53:47.300Z,97789.34
2022-10-21T08:56:19.769Z,97788.53
2022-10-21T08:58:50.890Z,97791.56
2022-10-21T09:01:26.395Z,97798.75
2022-10-21T09:04:02.845Z,97795.78
2022-10-21T09:06:35.301Z,97796.59
2022-10-21T09:09:10.695Z,97797.66
2022-10-21T09:12:11.369Z,97806.69
2022-10-21T09:14:56.311Z,97808.59
2022-10-21T09:17:51.835Z,97803.34
2022-10-21T09:20:37.233Z,97800.78
2022-10-21T09:23:37.181Z,97805.75
2022-10-21T09:26:27.980Z,97799.88
2022-10-21T09:28:57.752Z,97776.81
2022-10-21T09:31:24.330Z,97805.50
2022-10-21T09:33:58.405Z,97759.31
2022-10-21T09:36:37.541Z,97802.19
2022-10-21T09:39:16.411Z,97805.75
2022-10-21T09:41:46.780Z,97799.06
2022-10-21T09:44:19.374Z,97816.25
2022-10-21T09:46:47.304Z,97821.50
2022-10-21T09:50:01.617Z,97820.91
2022-10-21T09:52:17.253Z,97811.31
2022-10-21T09:54:45.080Z,97806.09
2022-10-21T09:57:34.804Z,97809.81
2022-10-21T10:00:05.257Z,97810.63
2022-10-21T10:02:44.405Z,97780.19
2022-10-21T10:05:44.161Z,97801.75
2022-10-21T10:08:31.855Z,97800.69
2022-10-21T10:11:04.716Z,97800.25
2022-10-21T10:13:31.407Z,97803.47
2022-10-21T10:16:28.186Z,97792.59
2022-10-21T10:19:16.417Z,97758.84
2022-10-21T10:21:43.796Z,97792.59
2022-10-21T10:24:20.241Z,97789.97
2022-10-21T10:26:47.617Z,97792.63
2022-10-21T10:29:20.150Z,97785.41
2022-10-21T10:31:50.990Z,97776.63
2022-10-21T10:34:29.562Z,97774.69
2022-10-21T10:37:18.639Z,97766.97
2022-10-21T10:39:52.057Z,97765.91
2022-10-21T10:42:21.994Z,97760.38
2022-10-21T10:44:54.056Z,97769.19
2022-10-21T10:47:27.595Z,97764.47
2022-10-21T10:49:54.300Z,97764.84
2022-10-21T10:52:22.543Z,97761.00
2022-10-21T10:55:08.083Z,97757.44
2022-10-21T10:57:45.988Z,97758.41
2022-10-21T11:00:21.574Z,97761.16
2022-10-21T11:03:00.290Z,97759.53
2022-10-21T11:05:27.001Z,97759.38
2022-10-21T11:07:56.294Z,97755.66
2022-10-21T11:10:22.859Z,97762.03
2022-10-21T11:12:49.675Z,97765.53
2022-10-21T11:15:16.490Z,97751.22
2022-10-21T11:18:00.482Z,97758.59
2022-10-21T11:20:35.361Z,97755.84
2022-10-21T11:23:42.310Z,97767.09
2022-10-21T11:26:49.598Z,97750.59
2022-10-21T11:29:35.957Z,97767.78
2022-10-21T11:32:21.469Z,97775.66
2022-10-21T11:35:15.808Z,97771.06
2022-10-21T11:37:57.750Z,97765.25
2022-10-21T11:40:33.196Z,97770.16
2022-10-21T11:43:16.548Z,97774.09
2022-10-21T11:45:54.393Z,97777.25
2022-10-21T11:48:38.423Z,97770.97
2022-10-21T11:51:24.512Z,97771.44
2022-10-21T11:53:56.861Z,97766.31
2022-10-21T11:56:23.478Z,97765.13
2022-10-21T11:59:20.403Z,97763.41
2022-10-21T12:02:11.140Z,97770.97
2022-10-21T12:04:45.133Z,97773.31
2022-10-21T12:07:30.106Z,97774.94
2022-10-21T12:10:15.331Z,97775.84
2022-10-21T12:12:46.254Z,97766.81
2022-10-21T12:15:45.261Z,97756.88
2022-10-21T12:18:16.090Z,97759.00
2022-10-21T12:20:45.631Z,97755.44
2022-10-21T12:23:17.817Z,97729.81
2022-10-21T12:25:49.475Z,97748.00
2022-10-21T12:28:27.772Z,97751.25
2022-10-21T12:31:22.525Z,97746.19
2022-10-21T12:33:49.941Z,97739.66
2022-10-21T12:36:25.302Z,97738.75
2022-10-21T12:38:54.763Z,97740.31
2022-10-21T12:41:21.211Z,97744.53
2022-10-21T12:44:01.999Z,97744.53
2022-10-21T12:46:39.157Z,97750.28
2022-10-21T12:49:18.819Z,97746.50
2022-10-21T12:52:02.996Z,97742.13
2022-10-21T12:54:37.381Z,97735.31
2022-10-21T12:57:10.798Z,97733.72
2022-10-21T12:59:42.699Z,97730.16
2022-10-21T13:02:18.075Z,97728.09
2022-10-21T13:04:47.256Z,97732.94
2022-10-21T13:07:16.526Z,97734.34
2022-10-21T13:10:03.125Z,97727.72
2022-10-21T13:12:32.432Z,97730.41
2022-10-21T13:15:22.302Z,97727.63
2022-10-21T13:17:55.851Z,97720.38
2022-10-21T13:20:22.528Z,97720.53
2022-10-21T13:23:28.418Z,97714.47
2022-10-21T13:26:18.557Z,97709.59
2022-10-21T13:29:06.813Z,97704.94
2022-10-21T13:31:34.106Z,97726.06
2022-10-21T13:34:04.190Z,97726.91
2022-10-21T13:36:42.872Z,97731.28
2022-10-21T13:39:43.586Z,97739.47
2022-10-21T13:42:17.340Z,97740.50
2022-10-21T13:45:04.749Z,97752.34
2022-10-21T13:47:35.771Z,97746.88
2022-10-21T13:50:20.178Z,97763.00
2022-10-21T13:53:00.516Z,97756.97
2022-10-21T13:55:29.379Z,97755.44
2022-10-21T13:58:00.608Z,97751.25
2022-10-21T14:00:32.109Z,97749.22
2022-10-21T14:03:06.014Z,97765.53
2022-10-21T14:05:48.762Z,97756.16
2022-10-21T14:08:40.791Z,97765.50
2022-10-21T14:11:16.805Z,97774.88
2022-10-21T14:13:44.013Z,97770.66
2022-10-21T14:16:19.123Z,97727.75
2022-10-21T14:18:47.820Z,97755.91
2022-10-21T14:21:20.768Z,97777.78
2022-10-21T14:23:47.833Z,97750.78
2022-10-21T14:26:14.595Z,97765.47
2022-10-21T14:28:43.326Z,97779.53
2022-10-21T14:31:12.185Z,97757.00
2022-10-21T14:33:44.132Z,97765.34
2022-10-21T14:36:14.505Z,97762.81
2022-10-21T14:38:51.115Z,97777.81
2022-10-21T14:41:30.006Z,97780.69
2022-10-21T14:44:07.102Z,97774.91
2022-10-21T14:46:44.783Z,97761.53
2022-10-21T14:49:21.917Z,97758.75
2022-10-21T14:51:49.435Z,97764.63
2022-10-21T14:54:33.375Z,97766.03
2022-10-21T14:57:00.649Z,97743.38
2022-10-21T14:59:39.213Z,97764.31
2022-10-21T15:02:15.902Z,97773.09
2022-10-21T15:04:50.128Z,97779.75
2022-10-21T15:07:36.471Z,97785.59
2022-10-21T15:10:03.005Z,97779.34
2022-10-21T15:12:38.930Z,97770.00
2022-10-21T15:15:38.003Z,97773.81
2022-10-21T15:18:11.149Z,97774.28
2022-10-21T15:20:38.114Z,97779.38
2022-10-21T15:23:04.830Z,97787.09
2022-10-21T15:25:31.526Z,97784.34
2022-10-21T15:27:58.129Z,97779.84
2022-10-21T15:30:25.082Z,97782.56
2022-10-21T15:32:51.582Z,97780.03
2022-10-21T15:35:21.335Z,97777.25
2022-10-21T15:37:49.361Z,97779.03
2022-10-21T15:40:17.311Z,97768.97
2022-10-21T15:42:44.255Z,97777.06
2022-10-21T15:45:20.055Z,97777.16
2022-10-21T15:47:54.478Z,97783.84
2022-10-21T15:50:24.266Z,97792.47
2022-10-21T15:52:51.361Z,97791.09
2022-10-21T15:55:18.063Z,97785.53
2022-10-21T15:57:44.623Z,97769.25
2022-10-21T16:00:17.208Z,97770.78
2022-10-21T16:02:44.306Z,97768.56
2022-10-21T16:05:10.940Z,97767.41
2022-10-21T16:07:37.701Z,97771.34
2022-10-21T16:10:16.494Z,97776.88
2022-10-21T16:12:44.161Z,97775.97
2022-10-21T16:15:11.023Z,97783.31
2022-10-21T16:17:37.660Z,97787.88
2022-10-21T16:20:04.674Z,97783.13
2022-10-21T16:22:31.303Z,97771.31
2022-10-21T16:24:57.847Z,97768.25
2022-10-21T16:27:43.363Z,97761.41
2022-10-21T16:30:11.722Z,97784.22
2022-10-21T16:32:38.457Z,97784.34
2022-10-21T16:35:05.729Z,97797.84
2022-10-21T16:37:32.434Z,97797.16
2022-10-21T16:39:59.062Z,97782.38
2022-10-21T16:42:25.638Z,97787.34
2022-10-21T16:44:52.322Z,97789.44
2022-10-21T16:47:21.327Z,97788.41
2022-10-21T16:49:48.991Z,97788.13
2022-10-21T16:52:16.152Z,97799.34
2022-10-21T16:54:46.482Z,97795.28
2022-10-21T16:57:15.094Z,97803.66
2022-10-21T16:59:41.635Z,97791.78
2022-10-21T17:02:16.180Z,97798.50
2022-10-21T17:04:43.025Z,97797.50
2022-10-21T17:07:10.638Z,97795.78
2022-10-21T17:09:37.467Z,97792.09
2022-10-21T17:12:04.224Z,97799.34
2022-10-21T17:14:31.265Z,97791.06
2022-10-21T17:16:57.820Z,97795.94
2022-10-21T17:19:24.496Z,97807.06
2022-10-21T17:21:51.044Z,97808.22
2022-10-21T17:24:18.279Z,97806.53
2022-10-21T17:26:45.489Z,97801.84
2022-10-21T17:29:12.094Z,97801.75
2022-10-21T17:31:41.115Z,97797.78
2022-10-21T17:34:16.434Z,97804.09
2022-10-21T17:36:42.991Z,97808.53
2022-10-21T17:39:09.501Z,97813.19
2022-10-21T17:41:36.414Z,97812.03
2022-10-21T17:44:02.959Z,97815.63
2022-10-21T17:46:29.625Z,97812.03
2022-10-21T17:48:57.809Z,97801.41
2022-10-21T17:51:25.209Z,97830.56
2022-10-21T17:53:53.177Z,97834.00
2022-10-21T17:56:20.419Z,97820.13
2022-10-21T17:58:52.263Z,97833.91
2022-10-21T18:01:19.748Z,97815.41
2022-10-21T18:03:46.396Z,97814.72
2022-10-21T18:06:14.371Z,97825.72
2022-10-21T18:08:41.501Z,97831.84
2022-10-21T18:11:13.946Z,97833.31
2022-10-21T18:13:40.948Z,97803.69
2022-10-21T18:16:09.130Z,97829.94
2022-10-21T18:18:36.893Z,97791.28
2022-10-21T18:21:05.614Z,97827.53
2022-10-21T18:23:32.638Z,97834.00
2022-10-21T18:26:07.500Z,97832.50
2022-10-21T18:28:34.891Z,97828.81
2022-10-21T18:31:02.882Z,97817.97
2022-10-21T18:33:29.898Z,97791.94
2022-10-21T18:35:56.742Z,97813.28
2022-10-21T18:38:23.327Z,97811.53
2022-10-21T18:41:02.020Z,97794.34
2022-10-21T18:43:36.186Z,97798.59
2022-10-21T18:46:04.000Z,97800.00
2022-10-21T18:48:30.763Z,97797.69
2022-10-21T18:50:57.546Z,97807.69
2022-10-21T18:53:24.463Z,97801.72
2022-10-21T18:55:51.068Z,97804.25
2022-10-21T18:58:17.740Z,97801.44
2022-10-21T19:00:44.354Z,97805.56
2022-10-21T19:03:10.950Z,97811.00
2022-10-21T19:05:37.471Z,97810.38
2022-10-21T19:08:04.166Z,97806.59
2022-10-21T19:10:30.695Z,97809.47
2022-10-21T19:12:57.311Z,97819.88
2022-10-21T19:15:23.925Z,97814.31
2022-10-21T19:17:50.472Z,97813.53
2022-10-21T19:20:17.059Z,97821.06
2022-10-21T19:22:43.643Z,97820.25
2022-10-21T19:25:10.175Z,97823.47
2022-10-21T19:27:36.982Z,97817.19
2022-10-21T19:30:03.983Z,97806.81
2022-10-21T19:32:30.600Z,97822.19
2022-10-21T19:34:57.086Z,97813.66
2022-10-21T19:37:23.916Z,97823.94
2022-10-21T19:39:50.420Z,97825.75
2022-10-21T19:42:16.984Z,97831.06
2022-10-21T19:44:43.583Z,97824.63
2022-10-21T19:47:10.271Z,97804.72
2022-10-21T19:49:36.917Z,97840.81
2022-10-21T19:52:03.621Z,97835.06
2022-10-21T19:54:30.136Z,97822.78
2022-10-21T19:56:57.032Z,97828.09
2022-10-21T19:59:23.699Z,97828.25
2022-10-21T20:01:50.324Z,97815.84
2022-10-21T20:04:16.869Z,97824.78
2022-10-21T20:06:43.532Z,97826.03
2022-10-21T20:09:13.924Z,97827.44
2022-10-21T20:11:42.686Z,97822.50
2022-10-21T20:14:17.374Z,97821.44
2022-10-21T20:16:44.806Z,97829.66
2022-10-21T20:19:15.232Z,97839.50
2022-10-21T20:21:42.819Z,97851.16
2022-10-21T20:24:12.945Z,97840.44
2022-10-21T20:29:12.944Z,97851.88
2022-10-21T20:31:39.482Z,97855.44
2022-10-21T20:34:06.330Z,97851.63
2022-10-21T20:36:33.506Z,97857.91
2022-10-21T20:39:02.525Z,97858.72
2022-10-21T20:41:32.942Z,97878.34
2022-10-21T20:44:01.287Z,97886.88
2022-10-21T20:46:28.006Z,97891.38
2022-10-21T20:48:55.035Z,97887.75
2022-10-21T20:51:26.895Z,97877.09
2022-10-21T20:53:59.089Z,97887.56
2022-10-21T20:56:31.532Z,97883.06
2022-10-21T20:59:00.393Z,97885.09
2022-10-21T21:01:32.608Z,97876.47
2022-10-21T21:04:02.574Z,97843.06
2022-10-21T21:06:29.282Z,97880.19
2022-10-21T21:09:28.917Z,97869.56
2022-10-21T21:11:44.932Z,97859.84
2022-10-21T21:14:12.482Z,97862.88
2022-10-21T21:16:39.604Z,97858.56
2022-10-21T21:19:07.732Z,97844.47
2022-10-21T21:21:37.008Z,97856.63
2022-10-21T21:24:04.157Z,97861.94
2022-10-21T21:26:33.339Z,97858.56
2022-10-21T21:29:00.827Z,97863.75
2022-10-21T21:31:29.906Z,97867.22
2022-10-21T21:33:57.020Z,97863.66
2022-10-21T21:36:24.516Z,97867.03
2022-10-21T21:38:51.269Z,97863.22
2022-10-21T21:41:18.260Z,97873.03
2022-10-21T21:43:46.189Z,97870.69
2022-10-21T21:46:12.975Z,97865.44
2022-10-21T21:48:39.569Z,97852.88
2022-10-21T21:51:09.221Z,97863.31
2022-10-21T21:53:36.849Z,97850.16
2022-10-21T21:56:05.723Z,97846.81
2022-10-21T21:58:32.304Z,97850.28
2022-10-21T22:01:18.818Z,97857.44
2022-10-21T22:03:46.409Z,97866.69
2022-10-21T22:06:14.122Z,97864.81
2022-10-21T22:08:42.262Z,97862.16
2022-10-21T22:11:11.314Z,97841.22
2022-10-21T22:13:39.205Z,97864.66
2022-10-21T22:16:07.539Z,97868.72
2022-10-21T22:18:34.322Z,97840.00
2022-10-21T22:21:02.383Z,97860.81
2022-10-21T22:23:29.053Z,97854.38
2022-10-21T22:25:57.646Z,97841.22
2022-10-21T22:28:25.124Z,97847.47
2022-10-21T22:31:03.630Z,97856.75
2022-10-21T22:33:30.444Z,97845.16
2022-10-21T22:35:57.370Z,97814.78
2022-10-21T22:38:24.219Z,97820.91
2022-10-21T22:40:54.156Z,97826.97
2022-10-21T22:43:20.788Z,97834.13
2022-10-21T22:45:48.166Z,97843.56
2022-10-21T22:48:16.032Z,97829.06
2022-10-21T22:50:42.840Z,97846.25
2022-10-21T22:53:09.787Z,97842.03
2022-10-21T22:55:36.522Z,97829.66
2022-10-21T22:58:03.584Z,97820.56
2022-10-21T23:00:30.290Z,97832.69
2022-10-21T23:02:57.195Z,97840.09
2022-10-21T23:05:23.856Z,97855.56
2022-10-21T23:07:50.591Z,97845.63
2022-10-21T23:10:17.235Z,97851.31
2022-10-21T23:12:43.885Z,97845.53
2022-10-21T23:15:11.343Z,97846.22
2022-10-21T23:17:37.880Z,97848.75
2022-10-21T23:20:04.791Z,97820.34
2022-10-21T23:22:31.481Z,97850.97
2022-10-21T23:24:58.042Z,97853.66
2022-10-21T23:27:24.637Z,97848.91
2022-10-21T23:29:51.367Z,97843.78
2022-10-21T23:32:18.308Z,97846.22
2022-10-21T23:34:44.885Z,97844.13
2022-10-21T23:37:11.601Z,97844.97
2022-10-21T23:39:38.240Z,97851.09
2022-10-21T23:42:05.398Z,97856.66
2022-10-21T23:44:31.984Z,97852.94
2022-10-21T23:46:58.631Z,97858.25
2022-10-21T23:49:25.479Z,97848.06
2022-10-21T23:51:52.903Z,97843.72
2022-10-21T23:54:19.526Z,97838.16
2022-10-21T23:56:46.205Z,97833.84
2022-10-21T23:59:12.984Z,97830.63
